Time;durP1;ratioP1;P1;durP2;ratioP2;P2;SDS_P1;SDS_P2;PMS_P1;PMS_P2;Temp;Humidity;BMP_temperature;BMP_pressure;BME280_temperature;BME280_humidity;BME280_pressure;Samples;Min_cycle;Max_cycle;Signal;HPM_P1;HPM_P2
2023/06/10 00:02:00;;;;;;;8.50;6.18;;;;;;;23.51;27.75;100964.59;5037749;28;20358;-75
2023/06/10 00:04:28;;;;;;;6.88;6.18;;;;;;;23.49;27.71;100960.31;5032293;28;20034;-75
2023/06/10 00:06:57;;;;;;;7.07;5.95;;;;;;;23.47;27.87;100966.13;5017705;28;20056;-74
2023/06/10 00:09:25;;;;;;;6.72;5.72;;;;;;;23.47;27.87;100965.25;5031968;28;20060;-73
2023/06/10 00:11:53;;;;;;;6.68;6.05;;;;;;;23.45;27.79;100964.63;5036856;28;20079;-75
2023/06/10 00:14:21;;;;;;;6.90;6.13;;;;;;;23.43;27.70;100962.03;5037251;28;20037;-74
2023/06/10 00:16:52;;;;;;;6.50;5.80;;;;;;;23.45;27.71;100964.63;5033377;28;20060;-74
2023/06/10 00:19:25;;;;;;;5.90;5.30;;;;;;;23.38;27.87;100959.91;5027683;28;20038;-75
2023/06/10 00:21:53;;;;;;;6.03;5.43;;;;;;;23.37;27.88;100962.91;5021365;28;20057;-74
2023/06/10 00:24:21;;;;;;;6.55;5.82;;;;;;;23.36;28.16;100963.97;5030775;28;20393;-75
2023/06/10 00:26:50;;;;;;;6.00;5.40;;;;;;;23.34;28.39;100957.75;5023170;28;20189;-74
2023/06/10 00:29:18;;;;;;;6.18;5.57;;;;;;;23.34;28.13;100960.53;5029165;28;20037;-74
2023/06/10 00:31:46;;;;;;;6.82;6.18;;;;;;;23.32;28.00;100960.78;5039593;28;20076;-74
2023/06/10 00:34:15;;;;;;;7.25;5.80;;;;;;;23.33;28.08;100956.06;5022359;28;20060;-74
2023/06/10 00:36:44;;;;;;;6.85;6.00;;;;;;;23.28;27.98;100962.25;5041760;28;20110;-75
2023/06/10 00:39:12;;;;;;;6.45;5.75;;;;;;;23.28;28.18;100964.19;5037798;28;20493;-75
2023/06/10 00:41:40;;;;;;;6.05;5.45;;;;;;;23.26;28.29;100967.19;5029455;28;20045;-75
2023/06/10 00:44:08;;;;;;;6.30;5.68;;;;;;;23.24;28.05;100965.72;5036712;28;20071;-74
2023/06/10 00:46:37;;;;;;;6.15;5.55;;;;;;;23.23;28.17;100970.44;5035920;28;20056;-74
2023/06/10 00:49:06;;;;;;;6.57;5.88;;;;;;;23.21;28.53;100972.56;5037762;28;20043;-74
2023/06/10 00:51:36;;;;;;;7.50;5.70;;;;;;;23.21;28.55;100963.34;5026947;28;20480;-74
2023/06/10 00:54:05;;;;;;;6.93;6.00;;;;;;;23.18;28.38;100970.22;5037982;28;20036;-75
2023/06/10 00:56:35;;;;;;;7.50;6.03;;;;;;;23.17;28.62;100973.22;5034174;28;20103;-74
2023/06/10 00:59:03;;;;;;;6.32;5.70;;;;;;;23.14;28.65;100968.03;5040426;28;20106;-74
2023/06/10 01:01:32;;;;;;;6.43;5.72;;;;;;;23.10;28.94;100967.59;5031540;28;20050;-75
2023/06/10 01:04:02;;;;;;;7.18;6.05;;;;;;;23.07;29.01;100968.03;5018140;28;20480;-74
2023/06/10 01:06:37;;;;;;;7.35;6.32;;;;;;;23.06;29.24;100966.31;5035199;28;20073;-75
2023/06/10 01:09:14;;;;;;;7.05;6.30;;;;;;;23.04;28.75;100962.88;5034695;28;20059;-74
2023/06/10 01:11:48;;;;;;;6.47;5.82;;;;;;;23.01;29.00;100971.66;5018286;28;20049;-74
2023/06/10 01:14:18;;;;;;;6.78;5.78;;;;;;;22.94;28.97;100968.88;5033044;28;20129;-75
2023/06/10 01:16:46;;;;;;;6.95;5.80;;;;;;;22.90;29.04;100970.41;5031682;28;20057;-74
2023/06/10 01:19:14;;;;;;;6.90;6.07;;;;;;;22.87;29.06;100973.59;5021869;28;20564;-75
2023/06/10 01:21:48;;;;;;;7.00;6.32;;;;;;;22.87;29.11;100973.59;5034421;28;20348;-75
2023/06/10 01:24:19;;;;;;;6.90;6.20;;;;;;;22.83;29.22;100974.25;5032105;28;20441;-74
2023/06/10 01:26:51;;;;;;;7.40;6.43;;;;;;;22.82;29.30;100972.53;5030413;28;20045;-75
2023/06/10 01:29:23;;;;;;;7.00;6.30;;;;;;;22.78;29.33;100980.44;5012822;28;20077;-74
2023/06/10 01:32:01;;;;;;;8.77;6.87;;;;;;;22.75;29.44;100972.53;5031918;28;20076;-75
2023/06/10 01:34:31;;;;;;;6.70;6.05;;;;;;;22.70;29.18;100975.06;5032426;28;20060;-75
2023/06/10 01:37:01;;;;;;;7.22;6.47;;;;;;;22.69;29.43;100978.94;5030199;28;20049;-74
2023/06/10 01:39:29;;;;;;;7.15;6.45;;;;;;;22.64;29.65;100975.91;5019820;28;20495;-75
2023/06/10 01:41:57;;;;;;;8.05;6.72;;;;;;;22.61;29.41;100979.13;5031383;28;20057;-73
2023/06/10 01:44:25;;;;;;;7.82;7.03;;;;;;;22.58;29.53;100983.22;5019685;28;20595;-75
2023/06/10 01:46:53;;;;;;;7.10;6.28;;;;;;;22.54;29.61;100979.09;5034662;28;20365;-74
2023/06/10 01:49:23;;;;;;;7.50;6.70;;;;;;;22.52;29.63;100974.78;5014424;28;20077;-74
2023/06/10 01:51:51;;;;;;;8.07;6.22;;;;;;;22.48;29.74;100974.34;5039730;28;20474;-75
2023/06/10 01:54:20;;;;;;;7.15;6.38;;;;;;;22.47;29.69;100975.41;5032736;28;20446;-75
2023/06/10 01:56:48;;;;;;;7.22;6.47;;;;;;;22.42;29.67;100977.13;5018059;28;20420;-74
2023/06/10 01:59:16;;;;;;;6.85;6.15;;;;;;;22.39;29.87;100977.53;5040275;28;20659;-75
2023/06/10 02:01:44;;;;;;;7.95;6.53;;;;;;;22.37;29.78;100990.81;5034940;28;20049;-74
2023/06/10 02:04:12;;;;;;;7.88;6.80;;;;;;;22.34;29.89;100985.69;5020849;28;20581;-75
2023/06/10 02:06:40;;;;;;;8.98;6.80;;;;;;;22.31;30.25;100989.72;5017295;28;20129;-75
2023/06/10 02:09:08;;;;;;;7.43;6.55;;;;;;;22.28;29.98;100988.22;5017615;28;20037;-74
2023/06/10 02:11:37;;;;;;;7.07;6.38;;;;;;;22.27;30.10;100992.06;5029302;28;20495;-74
2023/06/10 02:14:05;;;;;;;8.00;6.57;;;;;;;22.21;29.89;100984.53;5013884;28;20251;-74
2023/06/10 02:16:33;;;;;;;7.45;6.45;;;;;;;22.19;29.88;100985.81;5034386;23;20545;-81
2023/06/10 02:19:03;;;;;;;8.45;6.95;;;;;;;22.16;29.86;100989.03;5046160;28;20040;-81
2023/06/10 02:21:31;;;;;;;7.13;6.07;;;;;;;22.13;29.59;100995.88;5050476;28;20053;-81
2023/06/10 02:23:59;;;;;;;7.82;6.55;;;;;;;22.12;30.26;100993.28;5021819;28;20080;-81
2023/06/10 02:26:27;;;;;;;7.47;6.22;;;;;;;22.08;30.10;101001.22;5035766;28;20060;-81
2023/06/10 02:29:00;;;;;;;;;;;;;;;21.77;30.62;101004.41;5029909;28;20041;-81
2023/06/10 02:31:29;;;;;;;7.35;6.00;;;;;;;22.00;30.07;100997.75;5029408;28;19964;-81
2023/06/10 02:33:57;;;;;;;7.95;6.55;;;;;;;22.01;30.31;101008.69;5030437;28;20060;-81
2023/06/10 02:36:28;;;;;;;7.68;6.35;;;;;;;21.99;30.39;101001.59;5025448;23;20066;-78
2023/06/10 02:38:56;;;;;;;7.75;6.88;;;;;;;21.97;30.27;101006.50;5026243;28;20045;-78
2023/06/10 02:41:24;;;;;;;7.63;6.15;;;;;;;21.95;29.99;101001.13;5005438;28;20048;-78
2023/06/10 02:43:53;;;;;;;7.50;6.60;;;;;;;21.92;30.28;100995.13;5031753;28;20056;-78
2023/06/10 02:46:23;;;;;;;8.25;6.43;;;;;;;21.93;30.15;101006.06;5016127;28;20041;-78
2023/06/10 02:48:53;;;;;;;7.03;6.30;;;;;;;21.88;30.35;101000.19;5015749;28;20459;-78
2023/06/10 02:51:24;;;;;;;7.40;6.63;;;;;;;21.87;30.63;100998.47;5012177;28;20116;-79
2023/06/10 02:53:59;;;;;;;8.35;6.72;;;;;;;21.84;30.28;100999.75;5023001;28;20048;-79
2023/06/10 02:56:27;;;;;;;7.25;6.50;;;;;;;21.83;30.25;100994.38;5027295;28;20071;-79
2023/06/10 02:58:58;;;;;;;8.95;6.68;;;;;;;21.81;30.50;100997.38;5022803;28;20075;-79
2023/06/10 03:01:28;;;;;;;7.65;6.72;;;;;;;21.83;30.32;101002.75;5024640;28;20059;-79
2023/06/10 03:04:02;;;;;;;9.43;6.93;;;;;;;21.78;30.73;100997.78;5010892;28;20045;-79
2023/06/10 03:06:33;;;;;;;7.85;7.05;;;;;;;21.77;30.59;101000.75;5027645;28;20059;-79
2023/06/10 03:09:10;;;;;;;7.32;6.28;;;;;;;21.75;30.83;101003.78;5036874;28;20147;-77
2023/06/10 03:11:41;;;;;;;7.85;6.72;;;;;;;21.74;30.56;101006.75;5040463;28;20514;-78
2023/06/10 03:14:09;;;;;;;7.38;6.38;;;;;;;21.71;30.53;101004.38;5014100;28;20303;-77
2023/06/10 03:16:40;;;;;;;7.18;6.40;;;;;;;21.70;30.63;101000.72;5019831;28;20058;-78
2023/06/10 03:19:09;;;;;;;7.47;6.50;;;;;;;21.65;30.82;100999.63;5011461;28;20457;-78
2023/06/10 03:21:41;;;;;;;8.32;6.85;;;;;;;21.63;30.89;100996.16;5038331;28;20543;-78
2023/06/10 03:24:10;;;;;;;8.30;7.25;;;;;;;21.61;30.95;100999.16;5039033;28;20034;-78
2023/06/10 03:26:39;;;;;;;7.28;6.53;;;;;;;21.59;30.67;101009.66;5020098;28;20041;-78
2023/06/10 03:29:08;;;;;;;8.23;6.85;;;;;;;21.58;31.08;101007.06;5016673;28;20037;-78
2023/06/10 03:31:38;;;;;;;7.28;6.43;;;;;;;21.56;31.18;101010.06;5014905;28;20212;-78
2023/06/10 03:34:07;;;;;;;8.25;6.85;;;;;;;21.51;30.81;101007.03;5012080;28;20050;-78
2023/06/10 03:36:37;;;;;;;7.50;6.70;;;;;;;21.51;31.38;101015.38;5039472;28;20544;-78
2023/06/10 03:39:06;;;;;;;8.27;6.57;;;;;;;21.49;31.51;101006.38;5041303;28;20447;-78
2023/06/10 03:41:34;;;;;;;7.72;6.43;;;;;;;21.47;31.58;101017.69;5026977;28;20099;-78
2023/06/10 03:44:03;;;;;;;8.57;6.75;;;;;;;21.46;31.05;101015.97;5036237;28;20041;-79
2023/06/10 03:46:31;;;;;;;7.65;6.65;;;;;;;21.43;31.20;101010.84;5018896;28;20041;-78
2023/06/10 03:49:02;;;;;;;8.07;7.28;;;;;;;21.44;31.48;101012.53;5013194;28;20461;-78
2023/06/10 03:51:31;;;;;;;8.52;7.10;;;;;;;21.41;31.38;101014.88;5019907;28;20047;-79
2023/06/10 03:53:59;;;;;;;7.47;6.65;;;;;;;21.39;31.59;101023.41;5017701;28;20056;-79
2023/06/10 03:56:28;;;;;;;7.82;7.03;;;;;;;21.37;31.84;101019.97;5034552;28;20111;-79
2023/06/10 03:58:56;;;;;;;7.85;7.03;;;;;;;21.37;31.64;101019.09;5007251;28;20191;-79
2023/06/10 04:01:24;;;;;;;7.57;6.40;;;;;;;21.35;31.69;101019.34;5017840;28;20050;-79
2023/06/10 04:03:53;;;;;;;8.48;6.82;;;;;;;21.33;31.51;101015.88;5035440;28;20044;-78
2023/06/10 04:06:25;;;;;;;8.52;6.90;;;;;;;21.35;31.67;101024.91;5018599;28;20147;-78
2023/06/10 04:08:55;;;;;;;;;;;;;;;21.04;32.09;101029.91;5015453;28;20580;-78
2023/06/10 04:11:24;;;;;;;7.32;6.43;;;;;;;21.25;31.79;101032.69;5035914;28;19924;-79
2023/06/10 04:13:52;;;;;;;8.07;6.88;;;;;;;21.29;31.81;101028.47;5018334;28;20051;-79
2023/06/10 04:16:22;;;;;;;7.85;6.85;;;;;;;21.27;31.65;101024.19;5012199;28;20171;-79
2023/06/10 04:18:50;;;;;;;8.60;7.15;;;;;;;21.27;31.79;101029.75;5014863;28;20076;-79
2023/06/10 04:21:19;;;;;;;8.38;6.70;;;;;;;21.25;31.89;101029.91;5020396;28;20102;-79
2023/06/10 04:23:51;;;;;;;7.43;6.63;;;;;;;21.26;31.78;101037.25;5042810;28;20040;-78
2023/06/10 04:26:20;;;;;;;8.82;6.85;;;;;;;21.26;32.11;101041.94;5007525;28;20501;-78
2023/06/10 04:28:48;;;;;;;7.45;6.43;;;;;;;21.25;32.26;101040.19;5003390;28;20072;-78
2023/06/10 04:31:16;;;;;;;8.02;7.03;;;;;;;21.25;32.17;101049.41;5015789;28;20103;-79
2023/06/10 04:33:44;;;;;;;7.80;6.65;;;;;;;21.25;32.24;101045.75;5028092;28;20139;-78
2023/06/10 04:36:14;;;;;;;8.13;6.47;;;;;;;21.25;32.07;101046.63;5021570;28;20045;-78
2023/06/10 04:38:42;;;;;;;6.97;6.28;;;;;;;21.26;32.07;101053.06;5025628;28;20292;-78
2023/06/10 04:41:11;;;;;;;7.60;6.18;;;;;;;21.28;31.86;101051.78;5021876;28;20058;-78
2023/06/10 04:43:39;;;;;;;8.20;6.40;;;;;;;21.26;31.87;101042.81;5021873;28;20385;-78
2023/06/10 04:46:08;;;;;;;7.13;6.28;;;;;;;21.28;31.88;101045.38;5032519;28;20061;-78
2023/06/10 04:48:37;;;;;;;8.43;6.07;;;;;;;21.30;32.38;101044.09;5034298;28;20589;-78
2023/06/10 04:51:05;;;;;;;8.00;6.40;;;;;;;21.30;31.87;101041.31;5014420;28;20509;-78
2023/06/10 04:53:33;;;;;;;7.70;6.50;;;;;;;21.31;32.11;101040.28;5038754;28;20067;-78
2023/06/10 04:56:00;;;;;;;7.80;6.53;;;;;;;21.33;31.82;101046.50;5031785;28;20696;-78
2023/06/10 04:58:30;;;;;;;7.82;6.40;;;;;;;21.37;31.73;101038.59;5025984;28;20496;-78
2023/06/10 05:00:58;;;;;;;7.93;6.40;;;;;;;21.36;32.19;101040.50;5031645;28;20499;-78
2023/06/10 05:03:26;;;;;;;7.43;6.63;;;;;;;21.39;32.15;101044.84;5025410;28;20137;-77
2023/06/10 05:05:54;;;;;;;7.82;6.47;;;;;;;21.44;32.22;101042.28;5036546;28;20053;-79
2023/06/10 05:08:22;;;;;;;7.40;6.65;;;;;;;21.50;32.09;101053.50;5040598;28;20041;-77
2023/06/10 05:10:50;;;;;;;7.60;6.43;;;;;;;21.61;32.36;101040.06;5014567;28;20052;-77
2023/06/10 05:13:18;;;;;;;8.93;6.82;;;;;;;21.75;32.26;101041.91;5017577;28;20069;-78
2023/06/10 05:15:48;;;;;;;7.32;6.40;;;;;;;21.96;32.39;101049.34;5027648;28;20072;-78
2023/06/10 05:18:16;;;;;;;6.93;6.03;;;;;;;22.12;32.11;101044.31;5027537;28;20399;-77
2023/06/10 05:20:44;;;;;;;7.15;6.45;;;;;;;22.34;31.60;101044.22;5033302;28;20444;-77
2023/06/10 05:23:12;;;;;;;6.32;5.72;;;;;;;22.58;31.57;101052.09;5034214;28;20072;-77
2023/06/10 05:25:39;;;;;;;7.18;5.72;;;;;;;22.83;31.42;101055.16;5033385;28;20418;-77
2023/06/10 05:28:09;;;;;;;7.57;5.88;;;;;;;23.08;31.26;101050.72;5006622;28;20096;-77
2023/06/10 05:30:41;;;;;;;6.45;5.38;;;;;;;23.35;30.91;101058.06;5025325;28;20076;-79
2023/06/10 05:33:10;;;;;;;6.35;5.68;;;;;;;23.64;30.29;101053.16;5031404;28;20037;-77
2023/06/10 05:35:38;;;;;;;7.28;5.93;;;;;;;23.87;29.99;101058.31;5040527;28;20057;-76
2023/06/10 05:38:06;;;;;;;6.63;5.90;;;;;;;24.11;29.75;101055.66;5019901;28;20030;-77
2023/06/10 05:40:34;;;;;;;7.82;6.47;;;;;;;24.34;29.31;101055.16;5018081;28;20045;-78
2023/06/10 05:43:02;;;;;;;6.63;5.57;;;;;;;24.56;29.05;101058.56;5022382;28;20069;-77
2023/06/10 05:45:30;;;;;;;6.43;5.63;;;;;;;24.74;28.55;101053.09;5014785;28;20073;-77
2023/06/10 05:47:58;;;;;;;6.40;5.38;;;;;;;24.94;28.45;101060.56;5032528;28;20127;-78
2023/06/10 05:50:27;;;;;;;6.72;5.55;;;;;;;25.12;28.11;101055.06;5032615;28;20068;-78
2023/06/10 05:52:55;;;;;;;7.60;5.65;;;;;;;25.24;27.91;101056.03;5035282;28;20045;-76
2023/06/10 05:55:23;;;;;;;6.90;5.63;;;;;;;25.38;27.69;101057.66;5027928;28;20108;-76
2023/06/10 05:57:59;;;;;;;7.28;5.47;;;;;;;25.54;26.88;101065.53;5027162;28;20091;-77
2023/06/10 06:00:27;;;;;;;6.07;5.35;;;;;;;25.60;27.16;101060.97;5021318;28;20058;-77
2023/06/10 06:02:57;;;;;;;6.28;5.45;;;;;;;25.70;27.06;101060.44;5031249;28;20046;-77
2023/06/10 06:05:26;;;;;;;6.85;5.50;;;;;;;25.76;26.71;101060.38;5038577;28;20065;-78
2023/06/10 06:07:54;;;;;;;6.00;5.40;;;;;;;25.83;26.74;101060.31;5030519;28;20077;-77
2023/06/10 06:10:22;;;;;;;6.53;5.40;;;;;;;25.88;26.77;101063.31;5032483;28;20060;-76
2023/06/10 06:12:50;;;;;;;5.78;5.18;;;;;;;25.93;26.73;101061.50;5013691;28;20044;-78
2023/06/10 06:15:18;;;;;;;6.22;5.13;;;;;;;26.00;26.63;101058.63;5030063;28;20558;-78
2023/06/10 06:17:46;;;;;;;6.53;5.32;;;;;;;26.06;26.71;101054.88;5017651;28;20048;-77
2023/06/10 06:20:14;;;;;;;5.88;5.10;;;;;;;26.16;26.55;101062.81;5030488;28;20037;-78
2023/06/10 06:22:48;;;;;;;6.70;5.15;;;;;;;26.27;26.40;101064.84;5037493;28;20060;-77
2023/06/10 06:25:16;;;;;;;5.88;5.22;;;;;;;26.35;26.61;101065.41;5032584;28;20037;-77
2023/06/10 06:27:45;;;;;;;6.18;5.00;;;;;;;26.45;26.66;101064.00;5024862;28;20048;-77
2023/06/10 06:30:13;;;;;;;6.57;5.03;;;;;;;26.54;25.85;101069.06;5029154;28;20037;-77
2023/06/10 06:32:41;;;;;;;6.90;5.18;;;;;;;26.62;25.62;101060.34;5036838;28;20048;-76
2023/06/10 06:35:09;;;;;;;6.18;5.13;;;;;;;26.71;25.38;101072.09;5039799;28;20044;-77
2023/06/10 06:37:38;;;;;;;6.00;5.22;;;;;;;26.77;25.52;101068.34;5033861;28;20037;-77
2023/06/10 06:40:18;;;;;;;5.85;5.25;;;;;;;26.87;25.28;101074.28;5016346;28;20048;-76
2023/06/10 06:42:46;;;;;;;7.05;5.15;;;;;;;26.92;25.41;101074.41;5020163;28;20044;-59
2023/06/10 06:45:18;;;;;;;;;;;;;;;26.67;25.60;101074.53;5009675;28;20144;-76
2023/06/10 06:47:46;;;;;;;5.60;4.70;;;;;;;27.02;25.39;101076.66;5027623;28;19921;-76
2023/06/10 06:50:14;;;;;;;6.60;5.03;;;;;;;27.13;24.70;101075.81;5028827;28;20045;-75
2023/06/10 06:52:42;;;;;;;5.78;4.90;;;;;;;27.21;24.63;101074.66;5018045;28;20041;-76
2023/06/10 06:55:10;;;;;;;5.35;4.40;;;;;;;27.28;24.50;101078.25;5032675;28;20419;-76
2023/06/10 06:57:40;;;;;;;5.78;5.03;;;;;;;27.37;24.93;101079.59;5029902;28;20052;-76
2023/06/10 07:00:09;;;;;;;6.68;5.40;;;;;;;27.41;25.09;101081.69;5032215;28;20059;-76
2023/06/10 07:02:37;;;;;;;6.97;5.47;;;;;;;27.51;24.47;101086.72;5021337;28;20053;-76
2023/06/10 07:05:06;;;;;;;7.63;5.20;;;;;;;27.59;24.19;101089.19;5015656;28;20045;-73
2023/06/10 07:07:37;;;;;;;5.70;5.07;;;;;;;27.64;23.94;101083.69;5040172;28;20041;-74
2023/06/10 07:10:06;;;;;;;6.30;5.22;;;;;;;27.73;24.07;101085.06;5032687;28;20037;-73
2023/06/10 07:12:34;;;;;;;5.50;4.68;;;;;;;27.79;24.24;101080.41;5020875;28;20060;-74
2023/06/10 07:15:04;;;;;;;5.45;4.90;;;;;;;27.87;23.60;101086.53;5026501;28;20045;-73
2023/06/10 07:17:32;;;;;;;6.78;5.22;;;;;;;27.91;23.66;101088.88;5042279;28;20033;-74
2023/06/10 07:20:00;;;;;;;5.20;4.68;;;;;;;27.97;23.44;101080.31;5031016;28;20033;-74
2023/06/10 07:22:28;;;;;;;5.63;4.53;;;;;;;28.01;23.32;101086.31;5013850;28;20489;-74
2023/06/10 07:24:56;;;;;;;6.35;5.20;;;;;;;28.06;23.59;101086.44;5029433;28;20192;-75
2023/06/10 07:27:24;;;;;;;5.85;5.03;;;;;;;28.11;23.41;101086.56;5006697;28;20422;-75
2023/06/10 07:29:52;;;;;;;6.68;4.82;;;;;;;28.19;23.61;101089.00;5005319;28;20215;-75
2023/06/10 07:32:23;;;;;;;6.78;4.90;;;;;;;28.29;23.79;101089.25;5037360;28;20087;-75
2023/06/10 07:34:51;;;;;;;5.00;4.45;;;;;;;28.33;24.08;101084.00;5034134;28;20046;-75
2023/06/10 07:37:20;;;;;;;5.35;4.75;;;;;;;28.45;24.01;101082.00;5032810;28;20049;-74
2023/06/10 07:39:48;;;;;;;5.93;4.65;;;;;;;28.55;23.68;101085.06;5031433;28;20240;-74
2023/06/10 07:42:16;;;;;;;6.10;4.88;;;;;;;28.65;23.67;101087.22;5031623;28;20046;-74
2023/06/10 07:44:44;;;;;;;6.53;5.10;;;;;;;28.75;23.43;101084.69;5027106;28;20268;-75
2023/06/10 07:47:11;;;;;;;6.13;5.28;;;;;;;28.85;23.71;101084.91;5037341;28;20060;-74
2023/06/10 07:49:41;;;;;;;6.63;5.05;;;;;;;28.96;23.37;101087.66;5022583;28;20497;-75
2023/06/10 07:52:09;;;;;;;6.20;5.20;;;;;;;29.04;22.57;101088.34;5007334;28;20165;-73
2023/06/10 07:54:37;;;;;;;5.97;5.15;;;;;;;29.11;22.77;101084.28;5034364;28;20072;-75
2023/06/10 07:57:06;;;;;;;6.20;5.20;;;;;;;29.19;22.38;101092.31;5022480;28;20545;-74
2023/06/10 07:59:34;;;;;;;6.00;5.35;;;;;;;29.24;22.56;101091.59;5024901;28;20053;-74
2023/06/10 08:02:02;;;;;;;6.28;5.20;;;;;;;29.29;21.95;101092.56;5025821;28;20095;-74
2023/06/10 08:04:31;;;;;;;6.78;5.30;;;;;;;29.33;21.69;101085.31;5033909;28;20411;-75
2023/06/10 08:07:00;;;;;;;6.07;4.90;;;;;;;29.41;22.01;101088.81;5017333;28;20464;-74
2023/06/10 08:09:28;;;;;;;6.20;5.32;;;;;;;29.44;21.92;101085.47;5023075;28;20506;-74
2023/06/10 08:11:56;;;;;;;5.85;4.80;;;;;;;29.50;21.66;101084.47;5012937;28;20106;-74
2023/06/10 08:14:24;;;;;;;6.20;5.07;;;;;;;29.56;21.85;101087.13;5031530;28;20137;-75
2023/06/10 08:16:52;;;;;;;6.38;5.00;;;;;;;29.63;21.27;101084.13;5037695;28;20416;-74
2023/06/10 08:19:20;;;;;;;5.97;5.20;;;;;;;29.68;21.43;101082.25;5034703;28;20419;-74
2023/06/10 08:21:48;;;;;;;6.40;5.20;;;;;;;29.73;20.99;101076.75;5023030;28;20458;-74
2023/06/10 08:24:18;;;;;;;5.90;5.22;;;;;;;29.82;21.56;101077.16;5035320;28;20046;-74
2023/06/10 08:26:46;;;;;;;5.47;4.97;;;;;;;29.84;21.91;101082.56;5028633;28;20042;-75
2023/06/10 08:29:14;;;;;;;6.13;5.43;;;;;;;29.91;21.30;101081.25;5015488;28;20496;-74
2023/06/10 08:31:43;;;;;;;5.60;5.05;;;;;;;29.98;21.83;101075.44;5026177;28;20302;-75
2023/06/10 08:34:11;;;;;;;5.40;4.90;;;;;;;30.04;21.36;101086.53;5010999;28;20033;-74
2023/06/10 08:36:39;;;;;;;6.03;5.43;;;;;;;30.13;21.63;101080.47;5035303;28;20053;-75
2023/06/10 08:39:08;;;;;;;5.88;5.07;;;;;;;30.19;21.83;101085.06;5057780;22;20041;-79
2023/06/10 08:41:43;;;;;;;5.82;5.22;;;;;;;30.30;20.44;101081.31;5047680;28;20045;-81
2023/06/10 08:44:18;;;;;;;5.68;5.07;;;;;;;30.37;21.25;101076.31;5048136;28;20044;-81
2023/06/10 08:46:47;;;;;;;6.00;5.32;;;;;;;30.41;21.10;101075.56;5045798;28;20071;-80
2023/06/10 08:49:20;;;;;;;5.80;5.05;;;;;;;30.49;21.13;101082.72;5034598;28;20677;-81
2023/06/10 08:51:51;;;;;;;6.70;5.50;;;;;;;30.56;20.67;101077.72;5035515;28;20601;-79
2023/06/10 08:54:28;;;;;;;6.22;5.03;;;;;;;30.61;21.17;101077.78;5051427;28;20037;-79
2023/06/10 08:56:59;;;;;;;6.32;5.72;;;;;;;30.67;20.92;101082.38;5033232;28;20307;-78
2023/06/10 08:59:28;;;;;;;6.05;4.95;;;;;;;30.69;20.75;101071.66;5033993;28;20079;-79
2023/06/10 09:01:56;;;;;;;6.82;5.18;;;;;;;30.77;21.53;101076.88;5039830;28;20037;-79
2023/06/10 09:04:25;;;;;;;6.03;5.43;;;;;;;30.81;20.53;101075.25;5034471;28;20049;-79
2023/06/10 09:06:54;;;;;;;7.22;5.65;;;;;;;30.83;20.60;101070.16;5031342;28;20504;-79
2023/06/10 09:09:23;;;;;;;5.85;5.15;;;;;;;30.85;20.83;101073.59;5031315;28;20532;-79
2023/06/10 09:11:51;;;;;;;6.32;5.43;;;;;;;30.88;20.95;101071.38;5027580;28;20053;-79
2023/06/10 09:14:20;;;;;;;5.80;5.13;;;;;;;30.93;20.46;101069.44;5041385;28;20509;-79
2023/06/10 09:16:49;;;;;;;6.57;5.47;;;;;;;30.94;20.58;101078.78;5051951;28;20061;-80
2023/06/10 09:19:18;;;;;;;5.88;5.28;;;;;;;30.99;21.15;101070.38;5037104;28;20045;-79
2023/06/10 09:21:46;;;;;;;6.13;5.53;;;;;;;31.01;20.48;101068.09;5040065;28;20045;-77
2023/06/10 09:24:14;;;;;;;6.15;5.38;;;;;;;31.08;20.25;101057.44;5034453;28;20461;-78
2023/06/10 09:26:44;;;;;;;6.90;5.22;;;;;;;31.11;20.21;101065.41;5046827;28;20041;-78
2023/06/10 09:29:12;;;;;;;6.30;5.70;;;;;;;31.13;20.59;101060.34;5049026;28;20516;-79
2023/06/10 09:31:42;;;;;;;7.20;5.68;;;;;;;31.19;20.04;101067.78;5054444;28;20065;-78
2023/06/10 09:34:12;;;;;;;7.13;5.68;;;;;;;31.19;20.12;101068.63;5035281;28;20063;-81
2023/06/10 09:36:40;;;;;;;5.40;4.85;;;;;;;31.20;20.28;101061.88;5031724;28;20071;-81
2023/06/10 09:39:15;;;;;;;6.28;5.40;;;;;;;31.25;20.54;101057.38;5032846;28;20048;-81
2023/06/10 09:41:45;;;;;;;6.38;5.57;;;;;;;31.24;19.79;101058.50;5032670;28;20463;-78
2023/06/10 09:44:15;;;;;;;6.10;5.50;;;;;;;31.24;19.82;101056.50;5046780;28;20066;-77
2023/06/10 09:46:47;;;;;;;6.18;5.57;;;;;;;31.27;20.15;101057.97;5049316;28;20569;-78
2023/06/10 09:49:15;;;;;;;5.93;5.32;;;;;;;31.24;20.00;101053.69;5032199;28;20041;-79
2023/06/10 09:51:52;;;;;;;6.25;5.28;;;;;;;31.28;20.05;101052.03;5044968;28;20071;-79
2023/06/10 09:54:21;;;;;;;6.13;5.30;;;;;;;31.25;20.69;101046.91;5024858;28;20411;-79
2023/06/10 09:56:50;;;;;;;6.00;5.35;;;;;;;31.31;20.40;101048.69;5032326;28;20127;-78
2023/06/10 09:59:29;;;;;;;5.53;4.90;;;;;;;31.38;20.86;101039.97;5045600;28;20088;-79
2023/06/10 10:02:00;;;;;;;6.50;5.80;;;;;;;31.42;20.50;101046.78;5047146;28;20049;-78
2023/06/10 10:04:29;;;;;;;6.35;5.55;;;;;;;31.43;21.03;101040.88;5038274;28;20036;-78
2023/06/10 10:06:59;;;;;;;6.05;5.45;;;;;;;31.53;20.75;101048.59;5042030;28;20411;-78
2023/06/10 10:09:27;;;;;;;6.32;5.40;;;;;;;31.60;20.57;101047.25;5041065;28;20033;-79
2023/06/10 10:11:56;;;;;;;6.07;5.47;;;;;;;31.68;20.62;101050.72;5041328;28;20139;-78
2023/06/10 10:14:25;;;;;;;6.38;5.25;;;;;;;31.74;20.07;101058.97;5037580;28;20045;-78
2023/06/10 10:16:54;;;;;;;6.38;5.25;;;;;;;31.78;19.72;101051.66;5038465;28;20045;-79
2023/06/10 10:19:29;;;;;;;6.18;5.57;;;;;;;31.86;19.83;101041.81;5054080;28;20051;-79
2023/06/10 10:22:02;;;;;;;6.68;5.25;;;;;;;31.89;20.01;101044.13;5057942;28;20140;-78
2023/06/10 10:24:35;;;;;;;6.00;5.40;;;;;;;31.92;19.95;101046.38;5038586;28;20131;-79
2023/06/10 10:27:19;;;;;;;6.20;4.97;;;;;;;31.95;19.90;101043.00;5037919;28;20052;-79
2023/06/10 10:29:52;;;;;;;5.90;5.30;;;;;;;31.96;19.71;101039.91;5059606;28;20041;-78
2023/06/10 10:32:26;;;;;;;5.95;5.35;;;;;;;32.00;19.42;101036.53;5050574;28;20060;-78
2023/06/10 10:35:08;;;;;;;5.75;5.10;;;;;;;32.03;18.99;101039.66;5045590;28;20041;-79
2023/06/10 10:37:37;;;;;;;5.50;4.95;;;;;;;32.00;19.00;101037.38;5036537;28;20507;-78
2023/06/10 10:40:07;;;;;;;5.90;5.30;;;;;;;32.03;19.10;101039.66;5053268;28;20044;-78
2023/06/10 10:42:36;;;;;;;5.95;5.22;;;;;;;32.02;18.84;101029.47;5053898;28;20128;-79
2023/06/10 10:45:06;;;;;;;7.95;5.35;;;;;;;32.02;18.43;101032.28;5054124;28;20085;-78
2023/06/10 10:47:38;;;;;;;6.63;5.57;;;;;;;31.99;18.28;101032.84;5053624;28;20036;-79
2023/06/10 10:50:16;;;;;;;6.55;5.35;;;;;;;31.95;17.58;101026.03;5044391;28;20063;-78
2023/06/10 10:52:55;;;;;;;5.95;5.05;;;;;;;31.89;17.76;101033.66;5051154;28;20033;-78
2023/06/10 10:55:24;;;;;;;6.53;5.50;;;;;;;31.79;18.00;101035.53;5032261;28;20060;-78
2023/06/10 10:57:57;;;;;;;6.30;5.50;;;;;;;31.72;17.56;101029.25;5053073;28;20113;-79
2023/06/10 11:00:28;;;;;;;6.75;5.70;;;;;;;31.59;17.65;101025.72;5040542;28;20343;-79
2023/06/10 11:03:00;;;;;;;6.97;5.57;;;;;;;31.47;18.41;101027.06;5041462;28;20068;-79
2023/06/10 11:05:44;;;;;;;5.82;5.05;;;;;;;31.38;17.76;101023.88;5034806;28;20046;-78
2023/06/10 11:08:12;;;;;;;5.90;5.30;;;;;;;31.21;18.31;101021.16;5062717;28;20086;-80
2023/06/10 11:10:42;;;;;;;6.35;5.50;;;;;;;31.15;18.15;101022.22;5040800;28;20064;-78
2023/06/10 11:13:14;;;;;;;6.63;5.40;;;;;;;31.04;18.60;101020.41;5060709;28;20037;-80
2023/06/10 11:15:44;;;;;;;;;;;;;;;30.64;19.10;101005.78;5054792;28;20049;-79
2023/06/10 11:18:23;;;;;;;6.63;4.87;;;;;;;30.84;18.48;101004.06;5043291;28;20031;-79
2023/06/10 11:21:01;;;;;;;5.65;5.07;;;;;;;30.79;18.10;101004.00;5040143;28;20071;-79
2023/06/10 11:23:41;;;;;;;6.05;5.15;;;;;;;30.76;18.95;101004.53;5042241;28;20148;-78
2023/06/10 11:26:14;;;;;;;7.25;5.07;;;;;;;30.70;18.41;100993.41;5054530;28;20526;-79
2023/06/10 11:28:43;;;;;;;6.40;5.30;;;;;;;30.64;18.99;101006.63;5058582;28;20061;-78
2023/06/10 11:31:20;;;;;;;6.05;5.43;;;;;;;30.63;18.19;100995.59;5042299;28;20057;-81
2023/06/10 11:33:52;;;;;;;5.75;5.07;;;;;;;30.58;18.64;100995.56;5044498;28;20551;-78
2023/06/10 11:36:21;;;;;;;6.10;5.40;;;;;;;30.51;18.85;100997.69;5043123;28;20144;-79
2023/06/10 11:38:50;;;;;;;5.82;5.22;;;;;;;30.50;18.51;100990.38;5056293;28;20091;-78